Time;durP1;ratioP1;P1;durP2;ratioP2;P2;SDS_P1;SDS_P2;PMS_P1;PMS_P2;Temp;Humidity;BMP_temperature;BMP_pressure;BME280_temperature;BME280_humidity;BME280_pressure;Samples;Min_cycle;Max_cycle;Signal;HPM_P1;HPM_P2
2021/10/27 00:00:37;;;;;;;3.83;2.10;;;;;;;;;;5019362;28;20243;-65
2021/10/27 00:03:05;;;;;;;2.30;1.87;;;;;;;;;;5019788;28;20204;-65
2021/10/27 00:05:33;;;;;;;5.30;2.13;;;;;;;;;;5019577;28;20215;-65
2021/10/27 00:08:02;;;;;;;3.83;1.90;;;;;;;;;;5019471;28;20235;-63
2021/10/27 00:10:30;;;;;;;2.70;1.90;;;;;;;;;;5019629;28;20212;-64
2021/10/27 00:12:58;;;;;;;2.93;1.97;;;;;;;;;;5019577;28;20232;-65
2021/10/27 00:15:26;;;;;;;3.40;2.10;;;;;;;;;;5019162;28;20213;-64
2021/10/27 00:17:54;;;;;;;6.07;2.40;;;;;;;;;;5019363;28;20295;-65
2021/10/27 00:20:22;;;;;;;3.10;1.90;;;;;;;;;;5019336;28;20212;-65
2021/10/27 00:22:50;;;;;;;3.10;1.80;;;;;;;;;;5019061;28;20235;-65
2021/10/27 00:25:20;;;;;;;3.10;2.00;;;;;;;;;;5019515;28;20218;-63
2021/10/27 00:27:48;;;;;;;1.73;1.63;;;;;;;;;;5019034;28;20208;-66
2021/10/27 00:30:16;;;;;;;2.80;1.67;;;;;;;;;;5015750;28;20220;-65
2021/10/27 00:32:44;;;;;;;5.47;1.93;;;;;;;;;;5018693;28;20323;-64
2021/10/27 00:35:12;;;;;;;3.07;2.40;;;;;;;;;;5018572;28;20200;-64
2021/10/27 00:37:40;;;;;;;3.03;2.10;;;;;;;;;;5018849;28;20215;-65
2021/10/27 00:40:08;;;;;;;4.60;1.90;;;;;;;;;;5018961;28;20211;-65
2021/10/27 00:42:38;;;;;;;4.23;1.70;;;;;;;;;;5018863;28;20207;-65
2021/10/27 00:45:06;;;;;;;3.90;2.40;;;;;;;;;;5018734;28;20219;-65
2021/10/27 00:47:34;;;;;;;8.53;2.63;;;;;;;;;;5018597;28;20214;-65
2021/10/27 00:50:03;;;;;;;4.13;2.10;;;;;;;;;;5006309;28;20215;-65
2021/10/27 00:52:31;;;;;;;4.67;2.40;;;;;;;;;;5018706;28;20231;-65
2021/10/27 00:54:59;;;;;;;4.07;1.97;;;;;;;;;;5018652;28;20204;-65
2021/10/27 00:57:27;;;;;;;3.67;2.40;;;;;;;;;;5018124;28;20215;-65
2021/10/27 00:59:57;;;;;;;5.63;1.93;;;;;;;;;;5018325;28;20233;-65
2021/10/27 01:02:24;;;;;;;3.13;2.00;;;;;;;;;;5018539;28;20582;-66
2021/10/27 01:04:53;;;;;;;3.50;2.20;;;;;;;;;;5018637;28;20295;-65
2021/10/27 01:07:21;;;;;;;5.07;2.13;;;;;;;;;;5018763;28;20224;-66
2021/10/27 01:09:49;;;;;;;4.83;1.90;;;;;;;;;;5018327;28;20711;-65
2021/10/27 01:12:17;;;;;;;3.40;2.20;;;;;;;;;;5018566;28;20312;-65
2021/10/27 01:14:46;;;;;;;3.27;2.27;;;;;;;;;;5018231;28;20234;-65
2021/10/27 01:17:16;;;;;;;3.80;2.37;;;;;;;;;;5018552;28;20204;-66
2021/10/27 01:19:46;;;;;;;3.37;2.03;;;;;;;;;;5018164;28;20227;-64
2021/10/27 01:22:14;;;;;;;2.93;2.13;;;;;;;;;;5018022;28;20231;-65
2021/10/27 01:24:42;;;;;;;5.43;2.27;;;;;;;;;;5018411;28;20290;-65
2021/10/27 01:27:10;;;;;;;3.57;2.17;;;;;;;;;;5018157;28;20238;-65
2021/10/27 01:29:38;;;;;;;2.87;2.30;;;;;;;;;;5017723;28;20220;-65
2021/10/27 01:32:07;;;;;;;2.60;2.17;;;;;;;;;;5017915;28;20218;-65
2021/10/27 01:34:35;;;;;;;4.53;2.20;;;;;;;;;;5018188;28;20687;-65
2021/10/27 01:37:05;;;;;;;5.73;2.00;;;;;;;;;;5017977;28;20211;-65
2021/10/27 01:39:33;;;;;;;3.03;2.13;;;;;;;;;;5017999;28;20231;-65
2021/10/27 01:42:01;;;;;;;4.77;2.53;;;;;;;;;;5017988;28;20212;-65
2021/10/27 01:44:29;;;;;;;5.20;2.20;;;;;;;;;;5017473;28;20667;-65
2021/10/27 01:46:57;;;;;;;3.53;2.63;;;;;;;;;;5018133;28;20679;-65
2021/10/27 01:49:25;;;;;;;3.20;2.17;;;;;;;;;;5017677;28;20232;-65
2021/10/27 01:51:55;;;;;;;3.53;2.17;;;;;;;;;;5017477;28;20208;-65
2021/10/27 01:54:24;;;;;;;4.30;2.30;;;;;;;;;;5017693;28;20708;-65
2021/10/27 01:56:53;;;;;;;5.33;2.30;;;;;;;;;;5018085;28;20218;-65
2021/10/27 01:59:21;;;;;;;1.77;1.50;;;;;;;;;;5017722;28;20236;-65
2021/10/27 02:01:49;;;;;;;3.10;2.10;;;;;;;;;;5019180;28;20208;-66
2021/10/27 02:04:18;;;;;;;3.10;1.53;;;;;;;;;;5024301;28;20215;-65
2021/10/27 02:06:46;;;;;;;2.43;1.83;;;;;;;;;;5024207;28;20204;-65
2021/10/27 02:09:14;;;;;;;4.50;1.80;;;;;;;;;;5024064;28;20228;-65
2021/10/27 02:11:44;;;;;;;1.63;1.50;;;;;;;;;;5024125;28;20258;-66
2021/10/27 02:14:12;;;;;;;2.13;1.93;;;;;;;;;;5023957;28;20311;-65
2021/10/27 02:16:40;;;;;;;3.60;1.90;;;;;;;;;;5024178;28;20208;-66
2021/10/27 02:19:09;;;;;;;2.97;1.90;;;;;;;;;;5024045;28;20228;-66
2021/10/27 02:21:37;;;;;;;3.67;1.80;;;;;;;;;;5023749;28;20243;-65
2021/10/27 02:24:06;;;;;;;5.00;1.87;;;;;;;;;;5023997;28;20287;-65
2021/10/27 02:26:34;;;;;;;3.87;1.70;;;;;;;;;;5023975;28;20578;-65
2021/10/27 02:29:03;;;;;;;5.60;2.73;;;;;;;;;;5023502;28;20742;-65
2021/10/27 02:31:31;;;;;;;1.70;1.60;;;;;;;;;;5023946;28;20351;-65
2021/10/27 02:33:59;;;;;;;1.67;1.40;;;;;;;;;;5023994;28;20234;-65
2021/10/27 02:36:27;;;;;;;3.83;1.80;;;;;;;;;;5023697;28;20571;-65
2021/10/27 02:38:55;;;;;;;2.37;1.57;;;;;;;;;;5023862;28;20232;-65
2021/10/27 02:41:23;;;;;;;3.40;1.87;;;;;;;;;;5024079;28;20215;-65
2021/10/27 02:43:51;;;;;;;3.23;1.93;;;;;;;;;;5024035;28;20212;-65
2021/10/27 02:46:21;;;;;;;3.47;2.07;;;;;;;;;;5023895;28;20204;-65
2021/10/27 02:48:49;;;;;;;2.53;1.60;;;;;;;;;;5023851;28;20310;-65
2021/10/27 02:51:17;;;;;;;2.73;1.67;;;;;;;;;;5023671;28;20818;-65
2021/10/27 02:53:46;;;;;;;4.23;1.60;;;;;;;;;;5023824;28;20263;-65
2021/10/27 02:56:14;;;;;;;3.00;1.87;;;;;;;;;;5023733;28;20579;-65
2021/10/27 02:58:43;;;;;;;3.10;1.30;;;;;;;;;;5023542;28;20278;-65
2021/10/27 03:01:11;;;;;;;2.30;1.50;;;;;;;;;;5023612;28;20212;-65
2021/10/27 03:03:41;;;;;;;2.83;1.20;;;;;;;;;;5024049;28;20200;-65
2021/10/27 03:06:09;;;;;;;4.83;1.90;;;;;;;;;;5023623;28;20215;-65
2021/10/27 03:08:37;;;;;;;3.70;1.80;;;;;;;;;;5023589;28;20228;-65
2021/10/27 03:11:06;;;;;;;3.07;2.17;;;;;;;;;;5023585;28;20208;-65
2021/10/27 03:13:34;;;;;;;6.83;2.23;;;;;;;;;;5021199;28;20232;-65
2021/10/27 03:16:02;;;;;;;1.60;1.47;;;;;;;;;;5020419;28;20204;-65
2021/10/27 03:18:30;;;;;;;2.53;1.70;;;;;;;;;;5020558;28;20238;-65
2021/10/27 03:20:59;;;;;;;5.77;2.23;;;;;;;;;;5020573;28;20236;-65
2021/10/27 03:23:27;;;;;;;3.27;2.00;;;;;;;;;;5020664;28;20209;-65
2021/10/27 03:25:55;;;;;;;2.37;1.73;;;;;;;;;;5020570;28;20208;-65
2021/10/27 03:28:23;;;;;;;2.37;1.40;;;;;;;;;;5020299;28;20224;-65
2021/10/27 03:30:51;;;;;;;3.90;2.00;;;;;;;;;;5020350;28;20219;-65
2021/10/27 03:33:19;;;;;;;2.37;1.70;;;;;;;;;;5020404;28;20228;-65
2021/10/27 03:35:47;;;;;;;2.50;1.70;;;;;;;;;;5020222;28;20671;-65
2021/10/27 03:38:16;;;;;;;3.47;1.80;;;;;;;;;;5019848;28;20711;-65
2021/10/27 03:40:45;;;;;;;3.93;2.00;;;;;;;;;;5020320;28;20291;-65
2021/10/27 03:43:14;;;;;;;2.60;1.70;;;;;;;;;;5020091;28;20212;-66
2021/10/27 03:45:42;;;;;;;4.93;2.10;;;;;;;;;;5019742;28;20295;-65
2021/10/27 03:48:10;;;;;;;3.30;1.73;;;;;;;;;;5020108;28;20232;-65
2021/10/27 03:50:38;;;;;;;5.87;2.30;;;;;;;;;;5019912;28;20208;-65
2021/10/27 03:53:06;;;;;;;3.30;1.77;;;;;;;;;;5019721;28;20219;-64
2021/10/27 03:55:35;;;;;;;3.90;1.57;;;;;;;;;;5019848;28;20208;-64
2021/10/27 03:58:04;;;;;;;8.70;2.40;;;;;;;;;;5020000;28;20228;-64
2021/10/27 04:00:31;;;;;;;6.47;2.27;;;;;;;;;;5019367;28;20204;-64
2021/10/27 04:03:00;;;;;;;2.93;2.30;;;;;;;;;;5019967;28;20299;-65
2021/10/27 04:05:28;;;;;;;3.60;2.60;;;;;;;;;;5019606;28;20235;-64
2021/10/27 04:07:56;;;;;;;5.07;2.33;;;;;;;;;;5019717;28;20243;-65
2021/10/27 04:10:24;;;;;;;4.33;2.00;;;;;;;;;;5019841;28;20228;-64
2021/10/27 04:12:53;;;;;;;2.87;2.30;;;;;;;;;;5019659;28;20208;-65
2021/10/27 04:15:21;;;;;;;6.07;2.20;;;;;;;;;;5018989;28;20310;-65
2021/10/27 04:17:49;;;;;;;5.67;2.63;;;;;;;;;;5019357;28;20219;-63
2021/10/27 04:20:17;;;;;;;4.37;2.23;;;;;;;;;;5019193;28;20566;-65
2021/10/27 04:22:45;;;;;;;3.47;2.20;;;;;;;;;;5019301;28;20609;-63
2021/10/27 04:25:13;;;;;;;5.37;2.50;;;;;;;;;;5018911;28;20664;-64
2021/10/27 04:27:41;;;;;;;4.70;2.10;;;;;;;;;;5019299;28;20214;-63
2021/10/27 04:30:11;;;;;;;5.97;2.90;;;;;;;;;;5018863;28;20582;-64
2021/10/27 04:32:41;;;;;;;5.37;2.77;;;;;;;;;;5019056;28;20557;-64
2021/10/27 04:35:09;;;;;;;4.53;3.30;;;;;;;;;;5019126;28;20314;-65
2021/10/27 04:37:39;;;;;;;5.37;3.30;;;;;;;;;;5018866;28;20208;-65
2021/10/27 04:40:08;;;;;;;6.97;3.57;;;;;;;;;;5018992;28;20218;-64
2021/10/27 04:42:36;;;;;;;4.23;3.13;;;;;;;;;;5019194;28;20208;-65
2021/10/27 04:45:05;;;;;;;5.27;3.53;;;;;;;;;;5018667;28;20205;-65
2021/10/27 04:47:35;;;;;;;5.03;3.60;;;;;;;;;;5018942;28;20214;-65
2021/10/27 04:50:03;;;;;;;5.40;3.80;;;;;;;;;;5018767;28;20212;-64
2021/10/27 04:52:31;;;;;;;7.10;4.13;;;;;;;;;;5018533;28;20574;-65
2021/10/27 04:54:59;;;;;;;6.03;4.33;;;;;;;;;;5018592;28;20235;-65
2021/10/27 04:57:27;;;;;;;8.97;5.40;;;;;;;;;;5018480;28;20222;-65
2021/10/27 04:59:55;;;;;;;6.93;4.70;;;;;;;;;;5018564;28;20232;-65
2021/10/27 05:02:24;;;;;;;9.10;5.67;;;;;;;;;;5018580;28;20203;-65
2021/10/27 05:04:54;;;;;;;9.57;5.37;;;;;;;;;;5018387;28;20567;-65
2021/10/27 05:07:21;;;;;;;12.57;5.90;;;;;;;;;;5017879;28;20205;-65
2021/10/27 05:09:49;;;;;;;9.47;5.80;;;;;;;;;;5018158;28;20230;-64
2021/10/27 05:12:17;;;;;;;13.03;6.37;;;;;;;;;;5017857;28;20663;-64
2021/10/27 05:14:45;;;;;;;10.53;6.10;;;;;;;;;;5017666;28;20228;-64
2021/10/27 05:17:14;;;;;;;14.87;6.43;;;;;;;;;;5017954;28;20225;-64
2021/10/27 05:19:42;;;;;;;13.33;7.00;;;;;;;;;;5022898;28;20223;-64
2021/10/27 05:22:13;;;;;;;7.73;5.57;;;;;;;;;;5018945;28;20236;-65
2021/10/27 05:24:41;;;;;;;10.83;5.73;;;;;;;;;;5014585;28;20566;-64
2021/10/27 05:27:10;;;;;;;11.67;7.27;;;;;;;;;;5017596;28;20204;-64
2021/10/27 05:29:38;;;;;;;11.27;7.43;;;;;;;;;;5014970;28;20224;-64
2021/10/27 05:32:07;;;;;;;12.53;7.47;;;;;;;;;;5018371;28;20216;-64
2021/10/27 05:34:35;;;;;;;13.83;6.50;;;;;;;;;;5017691;28;20228;-64
2021/10/27 05:37:03;;;;;;;12.77;7.47;;;;;;;;;;5017506;28;20218;-64
2021/10/27 05:39:33;;;;;;;14.47;7.73;;;;;;;;;;5017718;28;20287;-65
2021/10/27 05:42:01;;;;;;;14.77;7.83;;;;;;;;;;5018049;28;20679;-64
2021/10/27 05:44:29;;;;;;;12.83;7.57;;;;;;;;;;5017596;28;20222;-64
2021/10/27 05:46:57;;;;;;;15.07;8.00;;;;;;;;;;5017989;28;20204;-64
2021/10/27 05:49:30;;;;;;;14.83;7.73;;;;;;;;;;5015515;28;20328;-64
2021/10/27 05:52:03;;;;;;;16.90;8.43;;;;;;;;;;5013223;28;20573;-64
2021/10/27 05:57:18;;;;;;;17.33;8.37;;;;;;;;;;5015574;28;20207;-64
2021/10/27 05:59:47;;;;;;;15.63;8.50;;;;;;;;;;5017155;28;20230;-65
2021/10/27 06:02:15;;;;;;;13.30;7.47;;;;;;;;;;5017255;28;20259;-65
2021/10/27 06:04:43;;;;;;;9.83;7.07;;;;;;;;;;5015178;28;20192;-65
2021/10/27 06:07:11;;;;;;;17.17;8.30;;;;;;;;;;5017193;28;20211;-62
2021/10/27 06:09:41;;;;;;;13.40;7.47;;;;;;;;;;5017523;28;20255;-65
2021/10/27 06:12:13;;;;;;;15.37;7.47;;;;;;;;;;5017514;28;20219;-65
2021/10/27 06:14:41;;;;;;;15.73;7.27;;;;;;;;;;5016820;28;20294;-65
2021/10/27 06:17:09;;;;;;;13.03;7.83;;;;;;;;;;5017337;28;20212;-64
2021/10/27 06:19:37;;;;;;;16.03;7.63;;;;;;;;;;5016176;28;20598;-65
2021/10/27 06:22:05;;;;;;;16.20;8.63;;;;;;;;;;5014926;28;20580;-65
2021/10/27 06:24:33;;;;;;;12.33;7.40;;;;;;;;;;5015298;28;20210;-65
2021/10/27 06:27:04;;;;;;;13.07;7.47;;;;;;;;;;5015437;28;20208;-63
2021/10/27 06:29:40;;;;;;;13.87;8.10;;;;;;;;;;5014794;28;20642;-63
2021/10/27 06:32:15;;;;;;;12.83;6.50;;;;;;;;;;5015584;28;20276;-63
2021/10/27 06:34:45;;;;;;;11.53;7.43;;;;;;;;;;5015840;28;20218;-64
2021/10/27 06:37:29;;;;;;;13.57;7.17;;;;;;;;;;5017161;28;20226;-65
2021/10/27 06:48:15;;;;;;;12.13;6.47;;;;;;;;;;5018237;28;20228;-65
2021/10/27 06:51:03;;;;;;;13.00;6.30;;;;;;;;;;5020644;28;20599;-63
2021/10/27 06:53:31;;;;;;;11.40;6.60;;;;;;;;;;5020589;28;20238;-63
2021/10/27 06:56:00;;;;;;;7.83;6.03;;;;;;;;;;5020913;28;20234;-63
2021/10/27 06:58:31;;;;;;;14.77;7.20;;;;;;;;;;5020604;28;20224;-63
2021/10/27 07:01:01;;;;;;;12.90;6.70;;;;;;;;;;5020663;28;20204;-65
2021/10/27 07:17:13;;;;;;;8.93;6.00;;;;;;;;;;5020243;28;20311;-65
2021/10/27 07:19:41;;;;;;;10.03;6.03;;;;;;;;;;5020231;28;20250;-64
2021/10/27 07:22:11;;;;;;;8.27;5.50;;;;;;;;;;5020056;28;20236;-65
2021/10/27 07:24:44;;;;;;;9.33;6.53;;;;;;;;;;5020219;28;20577;-65
2021/10/27 07:27:12;;;;;;;8.83;5.90;;;;;;;;;;5020325;28;20268;-65
2021/10/27 07:29:43;;;;;;;13.33;6.80;;;;;;;;;;5019877;28;20220;-65
2021/10/27 07:32:13;;;;;;;9.90;6.00;;;;;;;;;;5020283;28;20215;-65
2021/10/27 07:34:43;;;;;;;11.40;5.90;;;;;;;;;;5019805;28;20250;-63
2021/10/27 07:42:47;;;;;;;13.30;6.77;;;;;;;;;;5019425;28;20219;-63
2021/10/27 07:45:18;;;;;;;10.90;6.77;;;;;;;;;;5019388;28;20212;-64
2021/10/27 07:47:46;;;;;;;7.70;5.87;;;;;;;;;;5020003;28;20311;-63
2021/10/27 07:50:14;;;;;;;9.07;6.63;;;;;;;;;;5019564;28;20232;-64
2021/10/27 07:52:42;;;;;;;13.80;7.33;;;;;;;;;;5018976;28;20201;-64
2021/10/27 07:55:11;;;;;;;10.03;6.70;;;;;;;;;;5018509;28;20196;-64
2021/10/27 07:57:39;;;;;;;11.27;7.27;;;;;;;;;;5018933;28;20200;-63
2021/10/27 08:00:07;;;;;;;10.67;7.60;;;;;;;;;;5018455;28;20204;-63
2021/10/27 08:02:37;;;;;;;9.70;6.50;;;;;;;;;;5019626;28;20216;-63
2021/10/27 08:05:05;;;;;;;11.27;7.83;;;;;;;;;;5019305;28;20210;-64
2021/10/27 08:07:33;;;;;;;10.33;7.27;;;;;;;;;;5019382;28;20290;-64
2021/10/27 08:10:01;;;;;;;12.73;7.00;;;;;;;;;;5019603;28;20212;-64
2021/10/27 08:12:29;;;;;;;14.00;8.37;;;;;;;;;;5019526;28;20208;-64
2021/10/27 08:14:58;;;;;;;10.00;7.07;;;;;;;;;;5019116;28;20244;-64
2021/10/27 08:17:26;;;;;;;11.37;7.53;;;;;;;;;;5019185;28;20228;-64
2021/10/27 08:19:55;;;;;;;11.40;7.03;;;;;;;;;;5018260;28;20220;-64
2021/10/27 08:22:24;;;;;;;9.27;6.70;;;;;;;;;;5018224;28;20328;-64
2021/10/27 08:24:53;;;;;;;13.57;7.00;;;;;;;;;;5017827;28;20283;-64
2021/10/27 08:27:31;;;;;;;10.93;6.70;;;;;;;;;;5018513;28;20264;-64
2021/10/27 08:30:04;;;;;;;15.50;7.80;;;;;;;;;;5018260;28;20228;-62
2021/10/27 08:32:42;;;;;;;14.43;6.50;;;;;;;;;;5015972;28;20197;-64
2021/10/27 08:35:13;;;;;;;10.87;6.00;;;;;;;;;;5015841;28;20283;-64
2021/10/27 08:37:43;;;;;;;11.97;6.83;;;;;;;;;;5018312;28;20220;-64
2021/10/27 08:40:11;;;;;;;13.03;6.90;;;;;;;;;;5015813;28;20283;-63
2021/10/27 08:42:40;;;;;;;10.33;7.10;;;;;;;;;;5017390;28;20214;-63
2021/10/27 08:45:08;;;;;;;10.10;6.30;;;;;;;;;;5018129;28;20204;-64
2021/10/27 08:47:37;;;;;;;11.80;7.33;;;;;;;;;;5018607;28;20196;-64
2021/10/27 08:50:05;;;;;;;10.50;6.27;;;;;;;;;;5018452;28;20575;-64
2021/10/27 08:52:35;;;;;;;10.73;6.87;;;;;;;;;;5018632;28;20204;-62
2021/10/27 08:55:04;;;;;;;9.23;5.53;;;;;;;;;;5018330;28;20681;-64
2021/10/27 08:57:32;;;;;;;7.70;6.07;;;;;;;;;;5018425;28;20238;-64
2021/10/27 09:00:06;;;;;;;10.70;5.73;;;;;;;;;;5017957;28;20284;-64
2021/10/27 09:02:53;;;;;;;8.17;5.50;;;;;;;;;;5018421;28;20212;-63
2021/10/27 09:14:51;;;;;;;9.17;5.60;;;;;;;;;;5018130;28;20212;-64
2021/10/27 09:34:23;;;;;;;8.50;5.50;;;;;;;;;;5016632;28;20215;-63
2021/10/27 09:40:18;;;;;;;6.90;5.40;;;;;;;;;;4956500;28;20232;-64
2021/10/27 09:46:21;;;;;;;10.17;7.13;;;;;;;;;;4996016;28;20196;-63
2021/10/27 10:05:27;;;;;;;8.17;5.33;;;;;;;;;;5015173;28;20203;-63
2021/10/27 10:07:55;;;;;;;6.43;4.73;;;;;;;;;;5016764;28;20307;-63
2021/10/27 10:10:23;;;;;;;9.03;5.20;;;;;;;;;;5016833;28;20204;-63
2021/10/27 10:12:53;;;;;;;8.87;5.17;;;;;;;;;;5017071;28;20200;-64
2021/10/27 10:15:25;;;;;;;7.53;5.40;;;;;;;;;;5016644;28;20739;-63
2021/10/27 10:17:54;;;;;;;6.47;4.90;;;;;;;;;;5016765;28;20303;-63
2021/10/27 10:20:23;;;;;;;7.43;5.33;;;;;;;;;;5016450;28;20207;-63
2021/10/27 10:23:21;;;;;;;5.87;4.37;;;;;;;;;;5016616;28;20208;-63
2021/10/27 10:25:50;;;;;;;6.80;5.10;;;;;;;;;;5019930;28;20227;-63
2021/10/27 10:28:19;;;;;;;7.07;5.30;;;;;;;;;;5020705;28;20226;-64
2021/10/27 10:30:52;;;;;;;7.00;5.10;;;;;;;;;;5021093;28;20200;-63
2021/10/27 10:33:21;;;;;;;6.27;5.20;;;;;;;;;;5019883;28;20267;-63
2021/10/27 10:38:41;;;;;;;6.73;5.20;;;;;;;;;;5015000;28;20235;-63
2021/10/27 10:41:33;;;;;;;9.17;5.23;;;;;;;;;;5016404;28;20215;-62
2021/10/27 10:56:11;;;;;;;7.13;5.37;;;;;;;;;;5019009;28;20197;-62
2021/10/27 10:59:00;;;;;;;10.60;6.40;;;;;;;;;;5018370;28;20679;-63
2021/10/27 11:01:41;;;;;;;9.07;6.40;;;;;;;;;;5018257;28;20584;-62
2021/10/27 11:24:24;;;;;;;6.50;5.33;;;;;;;;;;5019012;28;20616;-63
2021/10/27 11:27:12;;;;;;;6.70;5.07;;;;;;;;;;5019710;28;20200;-63
2021/10/27 11:38:16;;;;;;;8.37;5.17;;;;;;;;;;4995975;28;20236;-63
2021/10/27 11:40:45;;;;;;;6.70;5.33;;;;;;;;;;5016772;28;20592;-63
2021/10/27 11:43:28;;;;;;;6.77;5.70;;;;;;;;;;5018469;28;20200;-63
2021/10/27 11:45:59;;;;;;;8.40;5.40;;;;;;;;;;5017859;28;20593;-65
2021/10/27 11:48:33;;;;;;;8.87;5.80;;;;;;;;;;5018796;28;20231;-64
2021/10/27 11:51:09;;;;;;;8.23;5.33;;;;;;;;;;5018473;28;20211;-63
2021/10/27 11:53:39;;;;;;;9.17;5.70;;;;;;;;;;5018719;28;20204;-63
2021/10/27 11:56:12;;;;;;;9.50;6.60;;;;;;;;;;5018722;28;20197;-64
2021/10/27 11:58:41;;;;;;;7.60;5.97;;;;;;;;;;5017735;28;20228;-64
2021/10/27 12:01:13;;;;;;;8.70;6.10;;;;;;;;;;5019048;28;20208;-63
2021/10/27 12:03:43;;;;;;;12.83;6.07;;;;;;;;;;5017006;28;20223;-64
2021/10/27 12:09:34;;;;;;;8.20;5.60;;;;;;;;;;5018025;28;20657;-64
2021/10/27 12:15:21;;;;;;;8.93;6.23;;;;;;;;;;5013955;28;20212;-62
2021/10/27 12:18:09;;;;;;;8.57;6.10;;;;;;;;;;5019308;28;20230;-63
2021/10/27 12:20:37;;;;;;;6.87;5.60;;;;;;;;;;5018844;28;20291;-64
2021/10/27 12:23:17;;;;;;;8.93;6.50;;;;;;;;;;5019075;28;20204;-64
2021/10/27 12:25:47;;;;;;;10.03;6.10;;;;;;;;;;5019238;28;20214;-64
2021/10/27 12:28:22;;;;;;;6.60;5.27;;;;;;;;;;5018853;28;20228;-64
2021/10/27 12:30:50;;;;;;;9.00;5.90;;;;;;;;;;5019285;28;20212;-64
2021/10/27 12:33:18;;;;;;;12.80;6.50;;;;;;;;;;5019126;28;20269;-64
2021/10/27 12:35:48;;;;;;;8.37;5.93;;;;;;;;;;5019130;28;20204;-63
2021/10/27 12:38:35;;;;;;;9.67;6.13;;;;;;;;;;5018545;28;20235;-64
2021/10/27 12:41:16;;;;;;;8.67;6.17;;;;;;;;;;5018837;28;20219;-64
2021/10/27 12:43:44;;;;;;;7.30;6.10;;;;;;;;;;5018330;28;20205;-64
2021/10/27 12:46:18;;;;;;;8.43;6.10;;;;;;;;;;5018650;28;20212;-64
2021/10/27 12:48:46;;;;;;;9.13;5.90;;;;;;;;;;5018586;28;20234;-63
2021/10/27 12:51:14;;;;;;;7.80;6.07;;;;;;;;;;5015225;28;20215;-64
2021/10/27 12:53:46;;;;;;;9.47;7.10;;;;;;;;;;5018364;28;20205;-64
2021/10/27 12:56:17;;;;;;;10.23;6.43;;;;;;;;;;5013779;28;20207;-64
2021/10/27 12:58:49;;;;;;;11.33;6.63;;;;;;;;;;5010224;28;20228;-64
2021/10/27 13:01:21;;;;;;;12.87;6.90;;;;;;;;;;5017739;28;20651;-64
2021/10/27 13:04:03;;;;;;;8.50;6.03;;;;;;;;;;5018086;28;20215;-63
2021/10/27 13:06:39;;;;;;;9.17;6.17;;;;;;;;;;5017809;28;20254;-63
2021/10/27 13:12:16;;;;;;;8.03;6.30;;;;;;;;;;5017984;28;20291;-63
2021/10/27 13:14:51;;;;;;;10.30;5.97;;;;;;;;;;5018040;28;20196;-63
2021/10/27 13:31:14;;;;;;;11.50;6.73;;;;;;;;;;5018049;28;20230;-63
2021/10/27 13:33:42;;;;;;;10.77;6.43;;;;;;;;;;5018241;28;20218;-63
2021/10/27 13:36:12;;;;;;;7.70;5.93;;;;;;;;;;5017756;28;20212;-63
2021/10/27 13:38:40;;;;;;;7.80;5.37;;;;;;;;;;5018154;28;20331;-63
2021/10/27 13:41:09;;;;;;;7.07;5.90;;;;;;;;;;5017529;28;20215;-64
2021/10/27 13:43:43;;;;;;;8.07;6.03;;;;;;;;;;5017770;28;20212;-63
2021/10/27 13:46:30;;;;;;;9.87;6.63;;;;;;;;;;5017613;28;20291;-62
2021/10/27 14:08:31;;;;;;;10.60;7.17;;;;;;;;;;5015193;28;20220;-63
2021/10/27 14:11:03;;;;;;;8.50;5.97;;;;;;;;;;5014447;28;20210;-62
2021/10/27 14:13:41;;;;;;;9.03;6.47;;;;;;;;;;5016740;28;20710;-62
2021/10/27 14:19:09;;;;;;;11.13;6.37;;;;;;;;;;4987157;28;20280;-62
2021/10/27 14:41:32;;;;;;;7.30;6.03;;;;;;;;;;5017436;28;20204;-64
2021/10/27 15:19:57;;;;;;;10.63;6.70;;;;;;;;;;5019980;28;20592;-63
2021/10/27 15:22:39;;;;;;;10.40;5.90;;;;;;;;;;5020090;28;20599;-63
2021/10/27 15:30:48;;;;;;;6.93;5.23;;;;;;;;;;5008842;28;20596;-64
2021/10/27 15:33:25;;;;;;;7.23;5.47;;;;;;;;;;5019955;28;20238;-64
2021/10/27 15:36:02;;;;;;;9.80;5.90;;;;;;;;;;5019623;28;20678;-63
2021/10/27 15:41:25;;;;;;;8.70;5.73;;;;;;;;;;5018500;28;20196;-62
2021/10/27 15:44:03;;;;;;;9.00;5.47;;;;;;;;;;5017737;28;20214;-62
2021/10/27 15:51:55;;;;;;;8.17;5.67;;;;;;;;;;5018836;28;20200;-62
2021/10/27 15:54:29;;;;;;;7.93;6.07;;;;;;;;;;5019299;28;21828;-62
2021/10/27 15:56:58;;;;;;;8.13;5.40;;;;;;;;;;5017196;28;20200;-62
2021/10/27 15:59:27;;;;;;;9.87;6.53;;;;;;;;;;5016048;28;20224;-64
2021/10/27 16:01:55;;;;;;;8.03;5.20;;;;;;;;;;5019089;28;20212;-64
2021/10/27 16:04:23;;;;;;;6.93;5.43;;;;;;;;;;5019342;28;20204;-64
2021/10/27 16:06:52;;;;;;;8.00;5.87;;;;;;;;;;5019356;28;20235;-64
2021/10/27 16:09:24;;;;;;;8.90;5.40;;;;;;;;;;5019275;28;20564;-64
2021/10/27 16:11:54;;;;;;;11.97;5.70;;;;;;;;;;5019714;28;20214;-64
2021/10/27 16:14:23;;;;;;;8.43;5.60;;;;;;;;;;5018889;28;20243;-64
2021/10/27 16:16:52;;;;;;;8.03;5.17;;;;;;;;;;5019253;28;20208;-65
2021/10/27 16:19:26;;;;;;;10.37;6.47;;;;;;;;;;5019244;28;20227;-64
2021/10/27 16:22:07;;;;;;;6.93;5.90;;;;;;;;;;5018404;28;20715;-64
2021/10/27 16:24:36;;;;;;;7.00;5.93;;;;;;;;;;5018860;28;20675;-64
2021/10/27 16:27:06;;;;;;;10.93;6.23;;;;;;;;;;5019118;28;20212;-64
2021/10/27 16:29:35;;;;;;;6.40;5.77;;;;;;;;;;5019025;28;20224;-64
2021/10/27 16:32:08;;;;;;;6.87;5.30;;;;;;;;;;5019115;28;20212;-64
2021/10/27 16:34:37;;;;;;;8.03;6.53;;;;;;;;;;5018840;28;20675;-64
2021/10/27 16:37:21;;;;;;;8.90;6.63;;;;;;;;;;5019129;28;20212;-64
2021/10/27 16:39:49;;;;;;;10.00;6.30;;;;;;;;;;5018745;28;20239;-64
2021/10/27 16:42:19;;;;;;;7.10;5.87;;;;;;;;;;5018588;28;20207;-64
2021/10/27 16:44:47;;;;;;;10.50;6.43;;;;;;;;;;5018247;28;20258;-64
2021/10/27 16:47:15;;;;;;;10.63;6.30;;;;;;;;;;5018990;28;20208;-64
2021/10/27 16:49:43;;;;;;;20.47;13.40;;;;;;;;;;5018568;28;20251;-64
2021/10/27 16:52:11;;;;;;;10.90;7.60;;;;;;;;;;5018711;28;20236;-64
2021/10/27 16:54:40;;;;;;;11.57;7.23;;;;;;;;;;5018627;28;20215;-64
2021/10/27 16:57:08;;;;;;;8.80;6.53;;;;;;;;;;5018601;28;20208;-64
2021/10/27 16:59:38;;;;;;;9.57;6.80;;;;;;;;;;5017889;28;20232;-65
2021/10/27 17:02:05;;;;;;;17.10;10.20;;;;;;;;;;5018681;28;20296;-64
2021/10/27 17:04:34;;;;;;;11.87;7.80;;;;;;;;;;5018103;28;20239;-65
2021/10/27 17:07:02;;;;;;;14.03;9.20;;;;;;;;;;5017527;28;20231;-66
2021/10/27 17:09:30;;;;;;;11.50;8.60;;;;;;;;;;5017752;28;20220;-65
2021/10/27 17:11:59;;;;;;;11.17;7.67;;;;;;;;;;5017631;28;20227;-65
2021/10/27 17:14:32;;;;;;;9.73;7.43;;;;;;;;;;5016045;28;20559;-65
2021/10/27 17:17:02;;;;;;;10.53;7.97;;;;;;;;;;5017826;28;20264;-64
2021/10/27 17:19:30;;;;;;;12.33;8.33;;;;;;;;;;5016962;28;20216;-65
2021/10/27 17:21:58;;;;;;;13.47;7.73;;;;;;;;;;5017122;28;20715;-65
2021/10/27 17:24:27;;;;;;;15.30;8.30;;;;;;;;;;5017373;28;20211;-65
2021/10/27 17:27:15;;;;;;;10.30;8.17;;;;;;;;;;5016222;28;20651;-65
2021/10/27 17:29:43;;;;;;;12.47;8.50;;;;;;;;;;5016793;28;20717;-65
2021/10/27 17:32:12;;;;;;;11.50;7.97;;;;;;;;;;5016882;28;20283;-66
2021/10/27 17:34:41;;;;;;;13.07;8.53;;;;;;;;;;5017210;28;20207;-65
2021/10/27 17:37:10;;;;;;;10.43;7.60;;;;;;;;;;5017204;28;20675;-64
2021/10/27 17:39:39;;;;;;;16.07;9.07;;;;;;;;;;5017248;28;20219;-65
2021/10/27 17:42:09;;;;;;;11.83;8.50;;;;;;;;;;5016924;28;20288;-65
2021/10/27 17:44:39;;;;;;;13.13;9.00;;;;;;;;;;5017009;28;20215;-65
2021/10/27 17:47:10;;;;;;;14.93;9.10;;;;;;;;;;5017051;28;20215;-65
2021/10/27 17:49:48;;;;;;;13.60;8.53;;;;;;;;;;5017088;28;20219;-65
2021/10/27 17:52:27;;;;;;;12.50;9.03;;;;;;;;;;5015221;28;20203;-66
2021/10/27 17:58:23;;;;;;;13.33;8.83;;;;;;;;;;5016845;28;20204;-65
2021/10/27 18:00:41;;;;;;;13.63;9.10;;;;;;;;;;5016754;28;20224;-65
2021/10/27 18:03:09;;;;;;;13.40;8.73;;;;;;;;;;5016767;28;20208;-65
2021/10/27 18:05:38;;;;;;;16.30;10.13;;;;;;;;;;5016808;28;20581;-65
2021/10/27 18:08:09;;;;;;;11.90;9.30;;;;;;;;;;5017095;28;20224;-65
2021/10/27 18:10:56;;;;;;;13.67;9.73;;;;;;;;;;5014300;28;20315;-65
2021/10/27 18:13:25;;;;;;;13.80;9.63;;;;;;;;;;5016674;28;20203;-65
2021/10/27 18:16:00;;;;;;;15.87;10.17;;;;;;;;;;5014215;28;20549;-65
2021/10/27 18:18:33;;;;;;;16.17;10.20;;;;;;;;;;5016758;28;20239;-65
2021/10/27 18:21:09;;;;;;;16.77;11.03;;;;;;;;;;5016874;28;20228;-65
2021/10/27 18:23:44;;;;;;;17.17;9.87;;;;;;;;;;5016442;28;20203;-64
2021/10/27 18:26:33;;;;;;;16.43;10.70;;;;;;;;;;5016553;28;20195;-64
2021/10/27 18:37:27;;;;;;;14.53;10.77;;;;;;;;;;5017089;28;20201;-65
2021/10/27 18:40:03;;;;;;;18.27;10.97;;;;;;;;;;5016325;28;20220;-65
2021/10/27 18:42:34;;;;;;;17.37;10.90;;;;;;;;;;5014125;28;20200;-65
2021/10/27 18:45:04;;;;;;;14.13;10.13;;;;;;;;;;5017809;28;20205;-65
2021/10/27 18:47:33;;;;;;;18.77;11.90;;;;;;;;;;5020486;28;20563;-65
2021/10/27 18:50:04;;;;;;;16.90;12.03;;;;;;;;;;5019877;28;20559;-65
2021/10/27 18:55:40;;;;;;;15.73;11.10;;;;;;;;;;5013216;28;20243;-65
2021/10/27 18:58:21;;;;;;;15.13;11.30;;;;;;;;;;5019657;28;20698;-65
2021/10/27 19:11:57;;;;;;;14.10;10.20;;;;;;;;;;5019301;28;20204;-65
2021/10/27 19:14:36;;;;;;;14.97;9.97;;;;;;;;;;5017545;28;20638;-65
2021/10/27 19:17:04;;;;;;;13.70;9.57;;;;;;;;;;5017628;28;20203;-65
2021/10/27 19:19:32;;;;;;;14.53;9.47;;;;;;;;;;5019534;28;20754;-65
2021/10/27 19:22:00;;;;;;;14.77;10.10;;;;;;;;;;5019373;28;20236;-66